sensor_id;sensor_type;location;lat;lon;timestamp;temperature;humidity
6355;DHT22;3210;48.708;9.030;2022-12-10T21:53:36;-2.40;99.90
6355;DHT22;3210;48.708;9.030;2022-12-10T21:56:05;-2.50;99.90
6355;DHT22;3210;48.708;9.030;2022-12-10T21:58:32;-2.60;1.00
6355;DHT22;3210;48.708;9.030;2022-12-10T22:00:59;-2.50;1.00
6355;DHT22;3210;48.708;9.030;2022-12-10T22:03:26;-2.40;1.00
6355;DHT22;3210;48.708;9.030;2022-12-10T22:05:53;-2.30;99.90
6355;DHT22;3210;48.708;9.030;2022-12-10T22:08:20;-2.40;99.90
6355;DHT22;3210;48.708;9.030;2022-12-10T22:10:48;-2.40;99.90
6355;DHT22;3210;48.708;9.030;2022-12-10T22:13:18;-2.50;99.90
6355;DHT22;3210;48.708;9.030;2022-12-10T22:15:45;-2.60;99.90
6355;DHT22;3210;48.708;9.030;2022-12-10T22:18:13;-2.90;99.90
6355;DHT22;3210;48.708;9.030;2022-12-10T22:20:41;-2.90;1.00
6355;DHT22;3210;48.708;9.030;2022-12-10T22:23:12;-3.00;1.00
6355;DHT22;3210;48.708;9.030;2022-12-10T22:25:40;-3.10;1.00
6355;DHT22;3210;48.708;9.030;2022-12-10T22:28:08;-3.10;1.00
6355;DHT22;3210;48.708;9.030;2022-12-10T22:30:37;-3.30;1.00
6355;DHT22;3210;48.708;9.030;2022-12-10T22:33:05;-3.20;1.00
6355;DHT22;3210;48.708;9.030;2022-12-10T22:35:32;-3.20;1.00
6355;DHT22;3210;48.708;9.030;2022-12-10T22:37:58;-3.30;1.00
6355;DHT22;3210;48.708;9.030;2022-12-10T22:40:25;-3.40;1.00
6355;DHT22;3210;48.708;9.030;2022-12-10T22:42:52;-3.40;1.00
6355;DHT22;3210;48.708;9.030;2022-12-10T22:45:20;-3.50;1.00
6355;DHT22;3210;48.708;9.030;2022-12-10T22:47:47;-3.50;1.00
6355;DHT22;3210;48.708;9.030;2022-12-10T22:50:14;-3.60;1.00
6355;DHT22;3210;48.708;9.030;2022-12-10T22:52:41;-3.70;1.00
6355;DHT22;3210;48.708;9.030;2022-12-10T22:55:08;-3.70;1.00
6355;DHT22;3210;48.708;9.030;2022-12-10T22:57:35;-3.70;1.00
6355;DHT22;3210;48.708;9.030;2022-12-10T23:00:05;-3.80;1.00
6355;DHT22;3210;48.708;9.030;2022-12-10T23:02:37;-3.80;1.00
6355;DHT22;3210;48.708;9.030;2022-12-10T23:05:05;-3.90;1.00
6355;DHT22;3210;48.708;9.030;2022-12-10T23:07:34;-3.90;1.00
6355;DHT22;3210;48.708;9.030;2022-12-10T23:10:01;-3.90;1.00
6355;DHT22;3210;48.708;9.030;2022-12-10T23:12:27;-4.00;1.00
6355;DHT22;3210;48.708;9.030;2022-12-10T23:15:12;-4.00;1.00
6355;DHT22;3210;48.708;9.030;2022-12-10T23:17:40;-4.00;1.00
6355;DHT22;3210;48.708;9.030;2022-12-10T23:20:10;-4.10;1.00
6355;DHT22;3210;48.708;9.030;2022-12-10T23:22:37;-4.00;1.00
6355;DHT22;3210;48.708;9.030;2022-12-10T23:25:04;-3.90;1.00
6355;DHT22;3210;48.708;9.030;2022-12-10T23:27:32;-3.90;1.00
6355;DHT22;3210;48.708;9.030;2022-12-10T23:29:59;-4.10;1.00
6355;DHT22;3210;48.708;9.030;2022-12-10T23:32:25;-4.20;1.00
6355;DHT22;3210;48.708;9.030;2022-12-10T23:34:54;-4.20;1.00
6355;DHT22;3210;48.708;9.030;2022-12-10T23:37:20;-4.30;1.00
6355;DHT22;3210;48.708;9.030;2022-12-10T23:39:48;-4.40;1.00
6355;DHT22;3210;48.708;9.030;2022-12-10T23:42:15;-4.40;1.00
6355;DHT22;3210;48.708;9.030;2022-12-10T23:44:42;-4.30;1.00
6355;DHT22;3210;48.708;9.030;2022-12-10T23:47:09;-4.30;1.00
6355;DHT22;3210;48.708;9.030;2022-12-10T23:49:35;-4.40;1.00
6355;DHT22;3210;48.708;9.030;2022-12-10T23:52:04;-4.50;1.00
6355;DHT22;3210;48.708;9.030;2022-12-10T23:54:31;-4.50;1.00
6355;DHT22;3210;48.708;9.030;2022-12-10T23:57:01;-4.50;1.00
6355;DHT22;3210;48.708;9.030;2022-12-10T23:59:28;-4.60;1.00
